sensor_id;sensor_type;location;lat;lon;timestamp;P1;durP1;ratioP1;P2;durP2;ratioP2
6344;SDS011;3205;42.666;23.264;2022-09-03T00:01:20;13.10;;;9.60;;
6344;SDS011;3205;42.666;23.264;2022-09-03T00:03:50;18.77;;;12.40;;
6344;SDS011;3205;42.666;23.264;2022-09-03T00:06:19;17.10;;;11.80;;
6344;SDS011;3205;42.666;23.264;2022-09-03T00:08:50;17.23;;;10.57;;
6344;SDS011;3205;42.666;23.264;2022-09-03T00:11:19;13.93;;;10.25;;
6344;SDS011;3205;42.666;23.264;2022-09-03T00:13:50;19.92;;;11.65;;
6344;SDS011;3205;42.666;23.264;2022-09-03T00:16:19;13.73;;;10.45;;
6344;SDS011;3205;42.666;23.264;2022-09-03T00:18:48;16.30;;;11.40;;
6344;SDS011;3205;42.666;23.264;2022-09-03T00:21:16;16.75;;;11.43;;
6344;SDS011;3205;42.666;23.264;2022-09-03T00:23:44;14.82;;;10.93;;
6344;SDS011;3205;42.666;23.264;2022-09-03T00:26:21;14.63;;;10.63;;
6344;SDS011;3205;42.666;23.264;2022-09-03T00:28:53;15.30;;;9.68;;
6344;SDS011;3205;42.666;23.264;2022-09-03T00:31:24;14.88;;;9.63;;
6344;SDS011;3205;42.666;23.264;2022-09-03T00:33:53;15.27;;;9.90;;
6344;SDS011;3205;42.666;23.264;2022-09-03T00:36:24;14.25;;;9.52;;
6344;SDS011;3205;42.666;23.264;2022-09-03T00:38:53;15.05;;;8.55;;
6344;SDS011;3205;42.666;23.264;2022-09-03T00:41:23;14.13;;;8.43;;
6344;SDS011;3205;42.666;23.264;2022-09-03T00:46:38;12.27;;;8.05;;
6344;SDS011;3205;42.666;23.264;2022-09-03T00:49:20;10.07;;;8.30;;
6344;SDS011;3205;42.666;23.264;2022-09-03T00:51:53;15.02;;;9.18;;
6344;SDS011;3205;42.666;23.264;2022-09-03T00:54:24;13.75;;;8.77;;
6344;SDS011;3205;42.666;23.264;2022-09-03T00:57:03;11.35;;;8.55;;
6344;SDS011;3205;42.666;23.264;2022-09-03T00:59:34;11.90;;;8.95;;
6344;SDS011;3205;42.666;23.264;2022-09-03T01:02:06;15.23;;;8.68;;
6344;SDS011;3205;42.666;23.264;2022-09-03T01:04:43;10.90;;;7.85;;
6344;SDS011;3205;42.666;23.264;2022-09-03T01:07:14;10.35;;;8.50;;
6344;SDS011;3205;42.666;23.264;2022-09-03T01:09:47;10.50;;;8.55;;
6344;SDS011;3205;42.666;23.264;2022-09-03T01:12:20;14.55;;;9.88;;
6344;SDS011;3205;42.666;23.264;2022-09-03T01:14:52;11.15;;;8.20;;
6344;SDS011;3205;42.666;23.264;2022-09-03T01:17:23;13.75;;;8.75;;
6344;SDS011;3205;42.666;23.264;2022-09-03T01:20:00;9.70;;;7.65;;
6344;SDS011;3205;42.666;23.264;2022-09-03T01:22:53;10.23;;;7.80;;
6344;SDS011;3205;42.666;23.264;2022-09-03T01:25:25;10.50;;;8.23;;
6344;SDS011;3205;42.666;23.264;2022-09-03T01:28:03;12.35;;;7.75;;
6344;SDS011;3205;42.666;23.264;2022-09-03T01:30:35;11.45;;;7.95;;
6344;SDS011;3205;42.666;23.264;2022-09-03T01:33:04;10.75;;;7.70;;
6344;SDS011;3205;42.666;23.264;2022-09-03T01:35:33;9.40;;;8.00;;
6344;SDS011;3205;42.666;23.264;2022-09-03T01:38:07;15.05;;;8.20;;
6344;SDS011;3205;42.666;23.264;2022-09-03T01:40:36;10.32;;;8.32;;
6344;SDS011;3205;42.666;23.264;2022-09-03T01:43:18;9.07;;;8.02;;
6344;SDS011;3205;42.666;23.264;2022-09-03T01:45:52;11.57;;;8.48;;
6344;SDS011;3205;42.666;23.264;2022-09-03T01:48:26;10.23;;;8.63;;
6344;SDS011;3205;42.666;23.264;2022-09-03T01:50:57;8.85;;;7.93;;
6344;SDS011;3205;42.666;23.264;2022-09-03T01:53:33;13.50;;;8.43;;
6344;SDS011;3205;42.666;23.264;2022-09-03T01:56:10;13.10;;;8.02;;
6344;SDS011;3205;42.666;23.264;2022-09-03T01:58:44;11.07;;;7.82;;
6344;SDS011;3205;42.666;23.264;2022-09-03T02:01:13;12.60;;;7.60;;
6344;SDS011;3205;42.666;23.264;2022-09-03T02:03:42;9.38;;;7.75;;
6344;SDS011;3205;42.666;23.264;2022-09-03T02:06:10;9.07;;;6.55;;
6344;SDS011;3205;42.666;23.264;2022-09-03T02:08:37;10.80;;;7.43;;
6344;SDS011;3205;42.666;23.264;2022-09-03T02:11:07;10.38;;;7.57;;
6344;SDS011;3205;42.666;23.264;2022-09-03T02:13:35;11.05;;;7.30;;
6344;SDS011;3205;42.666;23.264;2022-09-03T02:16:06;9.82;;;7.00;;
6344;SDS011;3205;42.666;23.264;2022-09-03T02:18:37;7.95;;;6.70;;
6344;SDS011;3205;42.666;23.264;2022-09-03T02:21:06;14.85;;;7.43;;
6344;SDS011;3205;42.666;23.264;2022-09-03T02:23:34;9.38;;;7.72;;
6344;SDS011;3205;42.666;23.264;2022-09-03T02:26:03;12.68;;;7.32;;
6344;SDS011;3205;42.666;23.264;2022-09-03T02:28:32;11.68;;;7.75;;
6344;SDS011;3205;42.666;23.264;2022-09-03T02:30:59;9.48;;;8.10;;
6344;SDS011;3205;42.666;23.264;2022-09-03T02:33:28;12.20;;;8.00;;
6344;SDS011;3205;42.666;23.264;2022-09-03T02:35:55;9.02;;;7.18;;
6344;SDS011;3205;42.666;23.264;2022-09-03T02:38:22;11.80;;;7.47;;
6344;SDS011;3205;42.666;23.264;2022-09-03T02:40:51;10.13;;;7.32;;
6344;SDS011;3205;42.666;23.264;2022-09-03T02:43:19;8.20;;;6.93;;
6344;SDS011;3205;42.666;23.264;2022-09-03T02:45:47;12.38;;;8.18;;
6344;SDS011;3205;42.666;23.264;2022-09-03T02:48:16;9.40;;;6.88;;
6344;SDS011;3205;42.666;23.264;2022-09-03T02:50:46;12.10;;;6.90;;
6344;SDS011;3205;42.666;23.264;2022-09-03T02:53:13;8.32;;;7.30;;
6344;SDS011;3205;42.666;23.264;2022-09-03T02:55:40;8.82;;;7.93;;
6344;SDS011;3205;42.666;23.264;2022-09-03T02:58:06;10.80;;;7.65;;
6344;SDS011;3205;42.666;23.264;2022-09-03T03:00:33;12.55;;;8.38;;
6344;SDS011;3205;42.666;23.264;2022-09-03T03:03:00;10.85;;;8.52;;
6344;SDS011;3205;42.666;23.264;2022-09-03T03:05:29;9.02;;;8.10;;
6344;SDS011;3205;42.666;23.264;2022-09-03T03:07:58;10.25;;;8.25;;
6344;SDS011;3205;42.666;23.264;2022-09-03T03:10:26;8.48;;;7.55;;
6344;SDS011;3205;42.666;23.264;2022-09-03T03:12:52;10.50;;;8.32;;
6344;SDS011;3205;42.666;23.264;2022-09-03T03:15:19;9.93;;;7.93;;
6344;SDS011;3205;42.666;23.264;2022-09-03T03:17:45;12.45;;;8.55;;
6344;SDS011;3205;42.666;23.264;2022-09-03T03:20:12;9.27;;;7.82;;
6344;SDS011;3205;42.666;23.264;2022-09-03T03:22:39;11.85;;;8.07;;
6344;SDS011;3205;42.666;23.264;2022-09-03T03:25:08;9.25;;;8.13;;
6344;SDS011;3205;42.666;23.264;2022-09-03T03:27:35;12.10;;;7.80;;
6344;SDS011;3205;42.666;23.264;2022-09-03T03:30:06;9.23;;;8.05;;
6344;SDS011;3205;42.666;23.264;2022-09-03T03:32:34;11.73;;;8.02;;
6344;SDS011;3205;42.666;23.264;2022-09-03T03:35:00;12.13;;;9.02;;
6344;SDS011;3205;42.666;23.264;2022-09-03T03:37:27;9.43;;;8.02;;
6344;SDS011;3205;42.666;23.264;2022-09-03T03:39:53;15.35;;;8.25;;
6344;SDS011;3205;42.666;23.264;2022-09-03T03:42:22;11.82;;;8.43;;
6344;SDS011;3205;42.666;23.264;2022-09-03T03:44:48;11.50;;;7.90;;
6344;SDS011;3205;42.666;23.264;2022-09-03T03:47:15;11.30;;;7.95;;
6344;SDS011;3205;42.666;23.264;2022-09-03T03:49:42;11.55;;;8.18;;
6344;SDS011;3205;42.666;23.264;2022-09-03T03:52:09;14.55;;;8.63;;
6344;SDS011;3205;42.666;23.264;2022-09-03T03:54:35;13.10;;;8.40;;
6344;SDS011;3205;42.666;23.264;2022-09-03T03:57:02;13.57;;;8.93;;
6344;SDS011;3205;42.666;23.264;2022-09-03T03:59:30;10.43;;;8.18;;
6344;SDS011;3205;42.666;23.264;2022-09-03T04:01:56;10.15;;;8.00;;
6344;SDS011;3205;42.666;23.264;2022-09-03T04:04:23;11.13;;;8.02;;
6344;SDS011;3205;42.666;23.264;2022-09-03T04:06:49;9.13;;;7.75;;
6344;SDS011;3205;42.666;23.264;2022-09-03T04:09:16;12.80;;;8.25;;
6344;SDS011;3205;42.666;23.264;2022-09-03T04:11:42;11.93;;;8.80;;
6344;SDS011;3205;42.666;23.264;2022-09-03T04:14:09;11.35;;;8.05;;
6344;SDS011;3205;42.666;23.264;2022-09-03T04:16:37;14.43;;;8.10;;
6344;SDS011;3205;42.666;23.264;2022-09-03T04:19:04;12.85;;;8.52;;
6344;SDS011;3205;42.666;23.264;2022-09-03T04:21:31;11.48;;;8.40;;
6344;SDS011;3205;42.666;23.264;2022-09-03T04:23:57;10.52;;;8.23;;
6344;SDS011;3205;42.666;23.264;2022-09-03T04:26:27;11.60;;;8.85;;
6344;SDS011;3205;42.666;23.264;2022-09-03T04:28:56;13.43;;;8.43;;
6344;SDS011;3205;42.666;23.264;2022-09-03T04:31:22;13.50;;;8.43;;
6344;SDS011;3205;42.666;23.264;2022-09-03T04:33:50;17.35;;;8.60;;
6344;SDS011;3205;42.666;23.264;2022-09-03T04:36:17;13.98;;;9.05;;
6344;SDS011;3205;42.666;23.264;2022-09-03T04:38:46;11.00;;;8.70;;
6344;SDS011;3205;42.666;23.264;2022-09-03T04:41:13;10.18;;;8.13;;
6344;SDS011;3205;42.666;23.264;2022-09-03T04:43:40;15.30;;;8.18;;
6344;SDS011;3205;42.666;23.264;2022-09-03T04:46:07;11.68;;;7.82;;
6344;SDS011;3205;42.666;23.264;2022-09-03T04:48:34;11.30;;;7.70;;
6344;SDS011;3205;42.666;23.264;2022-09-03T04:51:04;12.75;;;8.05;;
6344;SDS011;3205;42.666;23.264;2022-09-03T04:53:33;15.27;;;10.55;;
6344;SDS011;3205;42.666;23.264;2022-09-03T04:55:59;12.07;;;8.98;;
6344;SDS011;3205;42.666;23.264;2022-09-03T04:58:26;10.43;;;8.05;;
6344;SDS011;3205;42.666;23.264;2022-09-03T05:00:54;10.95;;;7.40;;
6344;SDS011;3205;42.666;23.264;2022-09-03T05:03:20;11.57;;;8.35;;
6344;SDS011;3205;42.666;23.264;2022-09-03T05:05:52;10.80;;;8.15;;
6344;SDS011;3205;42.666;23.264;2022-09-03T05:08:20;13.13;;;8.10;;
6344;SDS011;3205;42.666;23.264;2022-09-03T05:10:47;9.48;;;8.05;;
6344;SDS011;3205;42.666;23.264;2022-09-03T05:13:14;10.85;;;7.43;;
6344;SDS011;3205;42.666;23.264;2022-09-03T05:15:40;9.55;;;7.13;;
6344;SDS011;3205;42.666;23.264;2022-09-03T05:18:11;13.60;;;8.07;;
6344;SDS011;3205;42.666;23.264;2022-09-03T05:20:38;10.13;;;7.63;;
6344;SDS011;3205;42.666;23.264;2022-09-03T05:23:04;7.65;;;6.85;;
6344;SDS011;3205;42.666;23.264;2022-09-03T05:25:32;7.35;;;6.50;;
6344;SDS011;3205;42.666;23.264;2022-09-03T05:28:02;9.52;;;6.72;;
6344;SDS011;3205;42.666;23.264;2022-09-03T05:30:30;7.05;;;6.35;;
6344;SDS011;3205;42.666;23.264;2022-09-03T05:32:57;8.15;;;6.90;;
6344;SDS011;3205;42.666;23.264;2022-09-03T05:35:23;7.22;;;6.53;;
6344;SDS011;3205;42.666;23.264;2022-09-03T05:37:53;7.45;;;6.75;;
6344;SDS011;3205;42.666;23.264;2022-09-03T05:40:21;6.13;;;5.53;;
6344;SDS011;3205;42.666;23.264;2022-09-03T05:42:54;8.05;;;5.88;;
6344;SDS011;3205;42.666;23.264;2022-09-03T05:45:23;6.90;;;6.25;;
6344;SDS011;3205;42.666;23.264;2022-09-03T05:47:49;7.00;;;5.70;;
6344;SDS011;3205;42.666;23.264;2022-09-03T05:50:16;7.07;;;6.18;;
6344;SDS011;3205;42.666;23.264;2022-09-03T05:52:42;9.07;;;6.35;;
6344;SDS011;3205;42.666;23.264;2022-09-03T05:55:09;8.70;;;6.85;;
6344;SDS011;3205;42.666;23.264;2022-09-03T05:57:35;9.48;;;5.55;;
6344;SDS011;3205;42.666;23.264;2022-09-03T06:00:04;8.20;;;5.80;;
6344;SDS011;3205;42.666;23.264;2022-09-03T06:02:31;6.43;;;5.82;;
6344;SDS011;3205;42.666;23.264;2022-09-03T06:04:58;8.15;;;5.55;;
6344;SDS011;3205;42.666;23.264;2022-09-03T06:07:24;7.25;;;4.78;;
6344;SDS011;3205;42.666;23.264;2022-09-03T06:09:51;5.57;;;5.07;;
6344;SDS011;3205;42.666;23.264;2022-09-03T06:12:18;8.82;;;6.10;;
6344;SDS011;3205;42.666;23.264;2022-09-03T06:14:46;7.53;;;5.20;;
6344;SDS011;3205;42.666;23.264;2022-09-03T06:17:14;5.18;;;4.78;;
6344;SDS011;3205;42.666;23.264;2022-09-03T06:19:40;5.18;;;4.72;;
6344;SDS011;3205;42.666;23.264;2022-09-03T06:22:07;5.47;;;4.97;;
6344;SDS011;3205;42.666;23.264;2022-09-03T06:24:36;5.70;;;4.60;;
6344;SDS011;3205;42.666;23.264;2022-09-03T06:27:02;4.82;;;4.43;;
6344;SDS011;3205;42.666;23.264;2022-09-03T06:29:29;4.47;;;4.07;;
6344;SDS011;3205;42.666;23.264;2022-09-03T06:31:59;5.25;;;4.50;;
6344;SDS011;3205;42.666;23.264;2022-09-03T06:34:27;4.35;;;4.00;;
6344;SDS011;3205;42.666;23.264;2022-09-03T06:36:54;4.60;;;4.18;;
6344;SDS011;3205;42.666;23.264;2022-09-03T06:39:21;6.45;;;4.32;;
6344;SDS011;3205;42.666;23.264;2022-09-03T06:41:49;4.80;;;4.40;;
6344;SDS011;3205;42.666;23.264;2022-09-03T06:44:16;5.30;;;4.80;;
6344;SDS011;3205;42.666;23.264;2022-09-03T06:46:43;5.13;;;4.63;;
6344;SDS011;3205;42.666;23.264;2022-09-03T06:49:11;5.07;;;4.68;;
6344;SDS011;3205;42.666;23.264;2022-09-03T06:51:39;5.85;;;5.35;;
6344;SDS011;3205;42.666;23.264;2022-09-03T06:54:07;6.32;;;5.35;;
6344;SDS011;3205;42.666;23.264;2022-09-03T06:56:35;10.50;;;5.68;;
6344;SDS011;3205;42.666;23.264;2022-09-03T06:59:03;6.25;;;5.75;;
6344;SDS011;3205;42.666;23.264;2022-09-03T07:01:31;5.97;;;5.47;;
6344;SDS011;3205;42.666;23.264;2022-09-03T07:03:58;6.85;;;5.88;;
6344;SDS011;3205;42.666;23.264;2022-09-03T07:06:26;7.07;;;6.38;;
6344;SDS011;3205;42.666;23.264;2022-09-03T07:08:54;5.63;;;5.18;;
6344;SDS011;3205;42.666;23.264;2022-09-03T07:11:25;6.47;;;5.35;;
6344;SDS011;3205;42.666;23.264;2022-09-03T07:13:56;5.40;;;4.90;;
6344;SDS011;3205;42.666;23.264;2022-09-03T07:16:25;5.57;;;5.18;;
6344;SDS011;3205;42.666;23.264;2022-09-03T07:18:52;6.18;;;5.57;;
6344;SDS011;3205;42.666;23.264;2022-09-03T07:21:20;6.00;;;5.50;;
6344;SDS011;3205;42.666;23.264;2022-09-03T07:23:47;5.90;;;5.40;;
6344;SDS011;3205;42.666;23.264;2022-09-03T07:26:17;5.63;;;5.05;;
6344;SDS011;3205;42.666;23.264;2022-09-03T07:28:45;5.20;;;4.63;;
6344;SDS011;3205;42.666;23.264;2022-09-03T07:31:14;5.40;;;5.00;;
6344;SDS011;3205;42.666;23.264;2022-09-03T07:33:42;6.57;;;5.07;;
6344;SDS011;3205;42.666;23.264;2022-09-03T07:36:10;4.78;;;4.22;;
6344;SDS011;3205;42.666;23.264;2022-09-03T07:38:38;5.53;;;5.03;;
6344;SDS011;3205;42.666;23.264;2022-09-03T07:41:05;6.28;;;5.68;;
6344;SDS011;3205;42.666;23.264;2022-09-03T07:43:34;5.80;;;5.15;;
6344;SDS011;3205;42.666;23.264;2022-09-03T07:46:04;5.22;;;4.80;;
6344;SDS011;3205;42.666;23.264;2022-09-03T07:48:32;5.75;;;4.93;;
6344;SDS011;3205;42.666;23.264;2022-09-03T07:50:59;5.13;;;4.63;;
6344;SDS011;3205;42.666;23.264;2022-09-03T07:53:26;7.07;;;5.43;;
6344;SDS011;3205;42.666;23.264;2022-09-03T07:55:59;4.80;;;4.40;;
6344;SDS011;3205;42.666;23.264;2022-09-03T07:58:27;4.82;;;4.35;;
6344;SDS011;3205;42.666;23.264;2022-09-03T08:00:55;5.18;;;4.60;;
6344;SDS011;3205;42.666;23.264;2022-09-03T08:03:22;4.78;;;4.38;;
6344;SDS011;3205;42.666;23.264;2022-09-03T08:05:50;4.95;;;4.65;;
6344;SDS011;3205;42.666;23.264;2022-09-03T08:08:16;5.57;;;5.15;;
6344;SDS011;3205;42.666;23.264;2022-09-03T08:10:43;6.65;;;4.53;;
6344;SDS011;3205;42.666;23.264;2022-09-03T08:13:10;4.63;;;4.22;;
6344;SDS011;3205;42.666;23.264;2022-09-03T08:15:36;4.38;;;3.97;;
6344;SDS011;3205;42.666;23.264;2022-09-03T08:18:08;5.32;;;4.82;;
6344;SDS011;3205;42.666;23.264;2022-09-03T08:20:36;4.45;;;4.05;;
6344;SDS011;3205;42.666;23.264;2022-09-03T08:23:03;4.43;;;4.13;;
6344;SDS011;3205;42.666;23.264;2022-09-03T08:25:30;4.43;;;4.13;;
6344;SDS011;3205;42.666;23.264;2022-09-03T08:27:57;4.50;;;4.20;;
6344;SDS011;3205;42.666;23.264;2022-09-03T08:30:24;4.82;;;4.53;;
6344;SDS011;3205;42.666;23.264;2022-09-03T08:32:52;4.72;;;4.28;;
6344;SDS011;3205;42.666;23.264;2022-09-03T08:35:20;5.07;;;4.57;;
6344;SDS011;3205;42.666;23.264;2022-09-03T08:37:47;6.25;;;4.70;;
6344;SDS011;3205;42.666;23.264;2022-09-03T08:40:16;3.95;;;3.65;;
6344;SDS011;3205;42.666;23.264;2022-09-03T08:42:44;5.20;;;4.72;;
6344;SDS011;3205;42.666;23.264;2022-09-03T08:45:15;4.82;;;4.53;;
6344;SDS011;3205;42.666;23.264;2022-09-03T08:47:43;5.20;;;4.38;;
6344;SDS011;3205;42.666;23.264;2022-09-03T08:50:12;4.22;;;3.83;;
6344;SDS011;3205;42.666;23.264;2022-09-03T08:52:45;4.13;;;3.83;;
6344;SDS011;3205;42.666;23.264;2022-09-03T08:55:15;4.50;;;4.20;;
6344;SDS011;3205;42.666;23.264;2022-09-03T08:57:42;4.97;;;4.63;;
6344;SDS011;3205;42.666;23.264;2022-09-03T09:00:13;5.35;;;4.95;;
6344;SDS011;3205;42.666;23.264;2022-09-03T09:02:43;4.72;;;4.43;;
6344;SDS011;3205;42.666;23.264;2022-09-03T09:05:14;4.82;;;4.43;;
6344;SDS011;3205;42.666;23.264;2022-09-03T09:07:48;4.95;;;4.57;;
6344;SDS011;3205;42.666;23.264;2022-09-03T09:10:21;5.22;;;4.88;;
6344;SDS011;3205;42.666;23.264;2022-09-03T09:12:52;6.10;;;5.60;;
6344;SDS011;3205;42.666;23.264;2022-09-03T09:15:27;5.88;;;5.15;;
6344;SDS011;3205;42.666;23.264;2022-09-03T09:17:58;5.22;;;4.82;;
6344;SDS011;3205;42.666;23.264;2022-09-03T09:20:29;6.13;;;5.70;;
6344;SDS011;3205;42.666;23.264;2022-09-03T09:23:00;5.22;;;4.82;;
6344;SDS011;3205;42.666;23.264;2022-09-03T09:25:30;5.32;;;4.85;;
6344;SDS011;3205;42.666;23.264;2022-09-03T09:28:00;5.45;;;4.38;;
6344;SDS011;3205;42.666;23.264;2022-09-03T09:30:29;5.50;;;4.60;;
6344;SDS011;3205;42.666;23.264;2022-09-03T09:32:56;6.57;;;6.07;;
6344;SDS011;3205;42.666;23.264;2022-09-03T09:35:24;5.25;;;4.88;;
6344;SDS011;3205;42.666;23.264;2022-09-03T09:37:52;5.30;;;4.80;;
6344;SDS011;3205;42.666;23.264;2022-09-03T09:40:24;5.22;;;4.75;;
6344;SDS011;3205;42.666;23.264;2022-09-03T09:43:01;4.63;;;4.25;;
6344;SDS011;3205;42.666;23.264;2022-09-03T09:45:28;4.13;;;3.70;;
6344;SDS011;3205;42.666;23.264;2022-09-03T09:47:58;5.28;;;4.88;;
6344;SDS011;3205;42.666;23.264;2022-09-03T09:50:25;5.40;;;5.00;;
6344;SDS011;3205;42.666;23.264;2022-09-03T09:52:58;5.53;;;5.07;;
6344;SDS011;3205;42.666;23.264;2022-09-03T09:55:33;4.95;;;4.65;;
6344;SDS011;3205;42.666;23.264;2022-09-03T09:58:06;4.65;;;4.35;;
6344;SDS011;3205;42.666;23.264;2022-09-03T10:00:35;4.75;;;4.35;;
6344;SDS011;3205;42.666;23.264;2022-09-03T10:03:05;4.57;;;4.28;;
6344;SDS011;3205;42.666;23.264;2022-09-03T10:05:32;5.15;;;4.65;;
6344;SDS011;3205;42.666;23.264;2022-09-03T10:08:01;6.82;;;4.82;;
6344;SDS011;3205;42.666;23.264;2022-09-03T10:10:28;18.35;;;4.72;;
6344;SDS011;3205;42.666;23.264;2022-09-03T10:13:01;5.20;;;4.90;;
6344;SDS011;3205;42.666;23.264;2022-09-03T10:15:34;4.63;;;4.25;;
6344;SDS011;3205;42.666;23.264;2022-09-03T10:18:06;6.30;;;5.80;;
6344;SDS011;3205;42.666;23.264;2022-09-03T10:20:35;5.47;;;5.07;;
6344;SDS011;3205;42.666;23.264;2022-09-03T10:23:09;5.20;;;4.90;;
6344;SDS011;3205;42.666;23.264;2022-09-03T10:25:38;6.30;;;5.80;;
6344;SDS011;3205;42.666;23.264;2022-09-03T10:28:08;5.80;;;4.47;;
6344;SDS011;3205;42.666;23.264;2022-09-03T10:30:39;5.60;;;5.20;;
6344;SDS011;3205;42.666;23.264;2022-09-03T10:33:13;5.63;;;5.22;;
6344;SDS011;3205;42.666;23.264;2022-09-03T10:35:44;7.88;;;5.10;;
6344;SDS011;3205;42.666;23.264;2022-09-03T10:38:14;6.95;;;6.03;;
6344;SDS011;3205;42.666;23.264;2022-09-03T10:40:47;6.90;;;4.18;;
6344;SDS011;3205;42.666;23.264;2022-09-03T10:43:21;5.07;;;4.78;;
6344;SDS011;3205;42.666;23.264;2022-09-03T10:45:58;5.57;;;5.00;;
6344;SDS011;3205;42.666;23.264;2022-09-03T10:48:34;4.72;;;4.43;;
6344;SDS011;3205;42.666;23.264;2022-09-03T10:51:04;6.57;;;5.40;;
6344;SDS011;3205;42.666;23.264;2022-09-03T10:53:41;12.65;;;7.20;;
6344;SDS011;3205;42.666;23.264;2022-09-03T10:56:14;4.93;;;4.53;;
6344;SDS011;3205;42.666;23.264;2022-09-03T10:58:49;8.20;;;4.72;;
6344;SDS011;3205;42.666;23.264;2022-09-03T11:01:20;13.38;;;7.22;;
6344;SDS011;3205;42.666;23.264;2022-09-03T11:03:51;5.68;;;5.28;;
6344;SDS011;3205;42.666;23.264;2022-09-03T11:06:22;5.13;;;4.75;;
6344;SDS011;3205;42.666;23.264;2022-09-03T11:08:52;5.68;;;5.28;;
6344;SDS011;3205;42.666;23.264;2022-09-03T11:11:25;5.20;;;4.80;;
6344;SDS011;3205;42.666;23.264;2022-09-03T11:13:55;5.15;;;4.75;;
6344;SDS011;3205;42.666;23.264;2022-09-03T11:16:24;4.85;;;4.45;;
6344;SDS011;3205;42.666;23.264;2022-09-03T11:18:53;4.78;;;4.10;;
6344;SDS011;3205;42.666;23.264;2022-09-03T11:21:21;4.85;;;4.45;;
6344;SDS011;3205;42.666;23.264;2022-09-03T11:23:50;6.85;;;5.93;;
6344;SDS011;3205;42.666;23.264;2022-09-03T11:26:17;5.47;;;5.05;;
6344;SDS011;3205;42.666;23.264;2022-09-03T11:28:47;5.13;;;4.72;;
6344;SDS011;3205;42.666;23.264;2022-09-03T11:31:23;5.47;;;5.03;;
6344;SDS011;3205;42.666;23.264;2022-09-03T11:33:53;5.78;;;5.32;;
6344;SDS011;3205;42.666;23.264;2022-09-03T11:36:22;6.00;;;5.47;;
6344;SDS011;3205;42.666;23.264;2022-09-03T11:38:52;5.57;;;5.07;;
6344;SDS011;3205;42.666;23.264;2022-09-03T11:41:22;5.60;;;5.18;;
6344;SDS011;3205;42.666;23.264;2022-09-03T11:43:51;4.72;;;4.43;;
6344;SDS011;3205;42.666;23.264;2022-09-03T11:46:27;5.13;;;4.63;;
6344;SDS011;3205;42.666;23.264;2022-09-03T11:48:54;4.50;;;4.20;;
6344;SDS011;3205;42.666;23.264;2022-09-03T11:51:32;5.35;;;4.95;;
6344;SDS011;3205;42.666;23.264;2022-09-03T11:54:02;5.07;;;4.68;;
6344;SDS011;3205;42.666;23.264;2022-09-03T11:56:49;5.13;;;4.72;;
6344;SDS011;3205;42.666;23.264;2022-09-03T11:59:17;5.07;;;4.68;;
6344;SDS011;3205;42.666;23.264;2022-09-03T12:01:48;5.13;;;4.72;;
6344;SDS011;3205;42.666;23.264;2022-09-03T12:04:17;5.60;;;5.10;;
6344;SDS011;3205;42.666;23.264;2022-09-03T12:06:48;4.53;;;4.22;;
6344;SDS011;3205;42.666;23.264;2022-09-03T12:12:21;4.47;;;4.07;;
6344;SDS011;3205;42.666;23.264;2022-09-03T12:14:53;4.60;;;4.20;;
6344;SDS011;3205;42.666;23.264;2022-09-03T12:17:25;4.78;;;4.30;;
6344;SDS011;3205;42.666;23.264;2022-09-03T12:19:58;3.88;;;3.53;;
6344;SDS011;3205;42.666;23.264;2022-09-03T12:22:25;4.13;;;3.83;;
6344;SDS011;3205;42.666;23.264;2022-09-03T12:24:53;4.47;;;4.10;;
6344;SDS011;3205;42.666;23.264;2022-09-03T12:27:21;5.35;;;4.80;;
6344;SDS011;3205;42.666;23.264;2022-09-03T12:29:49;5.35;;;4.95;;
6344;SDS011;3205;42.666;23.264;2022-09-03T12:32:26;5.88;;;5.18;;
6344;SDS011;3205;42.666;23.264;2022-09-03T12:34:54;5.35;;;4.90;;
6344;SDS011;3205;42.666;23.264;2022-09-03T12:37:23;5.22;;;4.57;;
6344;SDS011;3205;42.666;23.264;2022-09-03T12:39:50;5.43;;;4.97;;
6344;SDS011;3205;42.666;23.264;2022-09-03T12:42:19;5.82;;;5.05;;
6344;SDS011;3205;42.666;23.264;2022-09-03T12:44:46;4.38;;;4.07;;
6344;SDS011;3205;42.666;23.264;2022-09-03T12:47:14;5.10;;;4.65;;
6344;SDS011;3205;42.666;23.264;2022-09-03T12:49:45;4.65;;;4.25;;
6344;SDS011;3205;42.666;23.264;2022-09-03T12:52:14;5.38;;;4.88;;
6344;SDS011;3205;42.666;23.264;2022-09-03T12:54:45;5.10;;;4.70;;
6344;SDS011;3205;42.666;23.264;2022-09-03T12:57:13;5.10;;;4.70;;
6344;SDS011;3205;42.666;23.264;2022-09-03T12:59:43;5.25;;;4.85;;
6344;SDS011;3205;42.666;23.264;2022-09-03T13:02:12;6.75;;;4.68;;
6344;SDS011;3205;42.666;23.264;2022-09-03T13:04:40;5.32;;;4.93;;
6344;SDS011;3205;42.666;23.264;2022-09-03T13:07:11;8.10;;;5.15;;
6344;SDS011;3205;42.666;23.264;2022-09-03T13:09:39;6.10;;;5.50;;
6344;SDS011;3205;42.666;23.264;2022-09-03T13:12:18;5.57;;;5.07;;
6344;SDS011;3205;42.666;23.264;2022-09-03T13:14:46;4.10;;;3.80;;
6344;SDS011;3205;42.666;23.264;2022-09-03T13:17:23;4.85;;;4.03;;
6344;SDS011;3205;42.666;23.264;2022-09-03T13:19:57;3.58;;;3.38;;
6344;SDS011;3205;42.666;23.264;2022-09-03T13:22:31;3.80;;;3.50;;
6344;SDS011;3205;42.666;23.264;2022-09-03T13:25:08;4.32;;;4.03;;
6344;SDS011;3205;42.666;23.264;2022-09-03T13:27:38;4.38;;;3.97;;
6344;SDS011;3205;42.666;23.264;2022-09-03T13:30:07;4.18;;;3.83;;
6344;SDS011;3205;42.666;23.264;2022-09-03T13:32:36;3.83;;;3.53;;
6344;SDS011;3205;42.666;23.264;2022-09-03T13:35:05;4.47;;;4.18;;
6344;SDS011;3205;42.666;23.264;2022-09-03T13:37:36;4.63;;;4.32;;
6344;SDS011;3205;42.666;23.264;2022-09-03T13:40:08;3.72;;;3.50;;
6344;SDS011;3205;42.666;23.264;2022-09-03T13:42:41;4.80;;;4.40;;
6344;SDS011;3205;42.666;23.264;2022-09-03T13:45:11;4.20;;;3.90;;
6344;SDS011;3205;42.666;23.264;2022-09-03T13:47:41;4.53;;;4.13;;
6344;SDS011;3205;42.666;23.264;2022-09-03T13:50:23;4.07;;;3.78;;
6344;SDS011;3205;42.666;23.264;2022-09-03T13:52:54;4.55;;;4.15;;
6344;SDS011;3205;42.666;23.264;2022-09-03T13:55:24;4.63;;;3.72;;
6344;SDS011;3205;42.666;23.264;2022-09-03T13:57:52;4.47;;;4.15;;
6344;SDS011;3205;42.666;23.264;2022-09-03T14:00:23;5.10;;;4.13;;
6344;SDS011;3205;42.666;23.264;2022-09-03T14:02:51;7.60;;;4.43;;
6344;SDS011;3205;42.666;23.264;2022-09-03T14:05:30;4.68;;;4.28;;
6344;SDS011;3205;42.666;23.264;2022-09-03T14:08:03;4.60;;;4.20;;
6344;SDS011;3205;42.666;23.264;2022-09-03T14:10:36;5.90;;;4.68;;
6344;SDS011;3205;42.666;23.264;2022-09-03T14:13:05;4.65;;;4.30;;
6344;SDS011;3205;42.666;23.264;2022-09-03T14:15:40;4.00;;;3.70;;
6344;SDS011;3205;42.666;23.264;2022-09-03T14:18:09;4.35;;;3.95;;
6344;SDS011;3205;42.666;23.264;2022-09-03T14:20:40;4.43;;;4.05;;
6344;SDS011;3205;42.666;23.264;2022-09-03T14:23:21;5.93;;;4.25;;
6344;SDS011;3205;42.666;23.264;2022-09-03T14:25:51;4.05;;;3.75;;
6344;SDS011;3205;42.666;23.264;2022-09-03T14:28:19;4.40;;;4.05;;
6344;SDS011;3205;42.666;23.264;2022-09-03T14:30:53;9.82;;;4.35;;
6344;SDS011;3205;42.666;23.264;2022-09-03T14:33:24;4.88;;;4.35;;
6344;SDS011;3205;42.666;23.264;2022-09-03T14:36:06;4.25;;;3.85;;
6344;SDS011;3205;42.666;23.264;2022-09-03T14:38:49;4.43;;;3.95;;
6344;SDS011;3205;42.666;23.264;2022-09-03T14:41:21;3.80;;;3.47;;
6344;SDS011;3205;42.666;23.264;2022-09-03T14:46:48;4.03;;;3.38;;
6344;SDS011;3205;42.666;23.264;2022-09-03T14:49:25;3.90;;;3.60;;
6344;SDS011;3205;42.666;23.264;2022-09-03T14:52:02;3.97;;;3.65;;
6344;SDS011;3205;42.666;23.264;2022-09-03T14:54:40;4.72;;;3.25;;
6344;SDS011;3205;42.666;23.264;2022-09-03T14:57:16;3.95;;;3.65;;
6344;SDS011;3205;42.666;23.264;2022-09-03T15:02:46;4.00;;;3.53;;
6344;SDS011;3205;42.666;23.264;2022-09-03T15:05:18;3.78;;;3.47;;
6344;SDS011;3205;42.666;23.264;2022-09-03T15:07:47;3.92;;;3.63;;
6344;SDS011;3205;42.666;23.264;2022-09-03T15:10:19;4.03;;;3.72;;
6344;SDS011;3205;42.666;23.264;2022-09-03T15:12:57;4.80;;;3.90;;
6344;SDS011;3205;42.666;23.264;2022-09-03T15:15:26;4.47;;;3.80;;
6344;SDS011;3205;42.666;23.264;2022-09-03T15:17:59;3.83;;;3.53;;
6344;SDS011;3205;42.666;23.264;2022-09-03T15:20:31;3.97;;;3.67;;
6344;SDS011;3205;42.666;23.264;2022-09-03T15:23:08;4.45;;;4.10;;
6344;SDS011;3205;42.666;23.264;2022-09-03T15:25:43;5.80;;;4.07;;